Time;durP1;ratioP1;P1;durP2;ratioP2;P2;SDS_P1;SDS_P2;PMS_P1;PMS_P2;Temp;Humidity;BMP_temperature;BMP_pressure;BME280_temperature;BME280_humidity;BME280_pressure;Samples;Min_cycle;Max_cycle;Signal;HPM_P1;HPM_P2
2022/12/14 00:00:58;;;;;;;18.60;9.93;;;;;;;;;;5016265;28;20084;-80
2022/12/14 00:03:24;;;;;;;23.13;9.77;;;;;;;;;;5014307;28;20049;-80
2022/12/14 00:05:50;;;;;;;17.77;7.65;;;;;;;;;;5010198;28;20042;-80
2022/12/14 00:08:17;;;;;;;17.23;10.23;;;;;;;;;;5012374;28;20077;-80
2022/12/14 00:10:43;;;;;;;17.73;9.00;;;;;;;;;;5013391;28;20052;-80
2022/12/14 00:13:13;;;;;;;16.10;8.07;;;;;;;;;;5012642;28;20038;-79
2022/12/14 00:15:39;;;;;;;18.88;10.15;;;;;;;;;;5013670;28;20045;-80
2022/12/14 00:18:06;;;;;;;22.23;9.73;;;;;;;;;;5013799;28;20150;-80
2022/12/14 00:20:32;;;;;;;19.70;9.40;;;;;;;;;;5011273;28;20077;-80
2022/12/14 00:22:58;;;;;;;22.35;9.30;;;;;;;;;;5012682;28;20528;-80
2022/12/14 00:25:25;;;;;;;22.83;10.57;;;;;;;;;;5012310;28;20061;-80
2022/12/14 00:27:51;;;;;;;23.33;9.50;;;;;;;;;;5013522;28;20054;-80
2022/12/14 00:30:18;;;;;;;18.42;9.85;;;;;;;;;;5011562;28;20117;-80
2022/12/14 00:32:45;;;;;;;17.40;9.07;;;;;;;;;;5013248;28;20047;-80
2022/12/14 00:35:12;;;;;;;20.45;10.38;;;;;;;;;;5012192;28;20050;-80
2022/12/14 00:37:38;;;;;;;18.35;9.75;;;;;;;;;;5011848;28;20129;-80
2022/12/14 00:40:05;;;;;;;23.38;11.07;;;;;;;;;;4991067;28;20080;-80
2022/12/14 00:42:32;;;;;;;16.60;10.25;;;;;;;;;;4993845;28;20046;-80
2022/12/14 00:44:58;;;;;;;18.58;9.02;;;;;;;;;;5012072;28;20093;-80
2022/12/14 00:47:24;;;;;;;17.05;8.82;;;;;;;;;;5012142;28;20041;-80
2022/12/14 00:49:51;;;;;;;22.20;10.27;;;;;;;;;;5009974;28;20678;-80
2022/12/14 00:52:17;;;;;;;18.00;9.38;;;;;;;;;;4991696;28;20566;-80
2022/12/14 00:54:43;;;;;;;16.98;8.90;;;;;;;;;;5013282;28;20494;-80
2022/12/14 00:57:09;;;;;;;19.10;8.68;;;;;;;;;;5009256;28;21209;-80
2022/12/14 00:59:35;;;;;;;19.17;8.77;;;;;;;;;;5010112;28;20038;-80
2022/12/14 01:02:01;;;;;;;19.02;9.63;;;;;;;;;;5009853;28;20183;-80
2022/12/14 01:04:28;;;;;;;16.45;8.98;;;;;;;;;;5013214;28;20049;-80
2022/12/14 01:06:54;;;;;;;15.85;8.10;;;;;;;;;;5009859;28;20125;-79
2022/12/14 01:09:21;;;;;;;16.75;9.10;;;;;;;;;;5009350;28;20042;-80
2022/12/14 01:11:47;;;;;;;18.33;10.23;;;;;;;;;;5010963;28;20042;-80
2022/12/14 01:14:15;;;;;;;15.27;8.43;;;;;;;;;;5013306;28;20038;-80
2022/12/14 01:16:41;;;;;;;17.42;8.80;;;;;;;;;;5009823;28;20053;-79
2022/12/14 01:19:07;;;;;;;19.48;8.60;;;;;;;;;;5006028;28;20045;-80
2022/12/14 01:21:33;;;;;;;17.35;8.77;;;;;;;;;;4989130;28;20141;-80
2022/12/14 01:24:01;;;;;;;9.02;5.07;;;;;;;;;;5006569;28;20046;-80
2022/12/14 01:26:29;;;;;;;17.17;9.23;;;;;;;;;;5008004;28;20046;-80
2022/12/14 01:28:57;;;;;;;13.00;6.93;;;;;;;;;;4989979;28;20854;-81
2022/12/14 01:31:25;;;;;;;18.05;10.15;;;;;;;;;;5004780;28;20950;-80
2022/12/14 01:33:51;;;;;;;16.60;7.43;;;;;;;;;;5007048;28;20042;-80
2022/12/14 01:36:21;;;;;;;22.65;8.68;;;;;;;;;;5012046;28;20045;-79
2022/12/14 01:38:51;;;;;;;17.77;9.55;;;;;;;;;;5013658;28;20049;-80
2022/12/14 01:41:25;;;;;;;16.98;8.93;;;;;;;;;;5013243;28;20042;-80
2022/12/14 01:44:07;;;;;;;11.40;6.57;;;;;;;;;;5010603;28;20042;-80
2022/12/14 01:46:39;;;;;;;18.77;9.02;;;;;;;;;;5011674;28;20048;-80
2022/12/14 01:49:11;;;;;;;18.70;9.93;;;;;;;;;;5013163;28;20046;-80
2022/12/14 01:51:37;;;;;;;22.38;9.77;;;;;;;;;;4992789;28;20116;-80
2022/12/14 01:54:06;;;;;;;19.10;10.15;;;;;;;;;;5012472;28;20536;-80
2022/12/14 01:56:32;;;;;;;24.70;10.90;;;;;;;;;;5013223;28;20080;-80
2022/12/14 01:59:00;;;;;;;21.00;9.80;;;;;;;;;;5013336;28;20125;-81
2022/12/14 02:01:27;;;;;;;18.63;10.32;;;;;;;;;;5008488;28;20057;-80
2022/12/14 02:03:53;;;;;;;19.52;10.05;;;;;;;;;;5012045;28;20081;-80
2022/12/14 02:06:22;;;;;;;18.88;9.63;;;;;;;;;;4992827;28;20045;-80
2022/12/14 02:08:50;;;;;;;22.58;10.93;;;;;;;;;;5011527;28;20081;-80
2022/12/14 02:11:21;;;;;;;15.90;8.45;;;;;;;;;;5010919;28;20123;-80
2022/12/14 02:13:47;;;;;;;22.60;9.80;;;;;;;;;;5014179;28;20052;-79
2022/12/14 02:16:13;;;;;;;21.30;9.80;;;;;;;;;;5011553;28;20177;-80
2022/12/14 02:18:39;;;;;;;19.58;10.18;;;;;;;;;;5010981;28;20073;-80
2022/12/14 02:21:14;;;;;;;17.80;9.77;;;;;;;;;;4993712;28;20141;-80
2022/12/14 02:23:43;;;;;;;15.75;9.48;;;;;;;;;;5013705;28;20045;-80
2022/12/14 02:26:18;;;;;;;20.42;8.00;;;;;;;;;;5012142;28;20084;-80
2022/12/14 02:28:53;;;;;;;19.42;8.73;;;;;;;;;;5013760;28;20045;-80
2022/12/14 02:31:25;;;;;;;17.50;9.73;;;;;;;;;;5012108;28;20100;-80
2022/12/14 02:33:51;;;;;;;17.95;9.35;;;;;;;;;;5010961;28;20527;-81
2022/12/14 02:36:22;;;;;;;18.65;8.93;;;;;;;;;;5015094;28;20052;-80
2022/12/14 02:38:54;;;;;;;17.38;8.63;;;;;;;;;;4998410;28;20496;-79
2022/12/14 02:41:29;;;;;;;19.70;10.07;;;;;;;;;;5011002;28;20570;-80
2022/12/14 02:43:58;;;;;;;23.08;10.48;;;;;;;;;;5013433;28;20046;-80
2022/12/14 02:46:27;;;;;;;21.83;9.50;;;;;;;;;;5011498;28;20669;-80
2022/12/14 02:49:12;;;;;;;19.45;9.38;;;;;;;;;;5013437;28;20049;-80
2022/12/14 02:51:50;;;;;;;20.33;10.10;;;;;;;;;;5011255;28;20074;-80
2022/12/14 02:54:28;;;;;;;21.10;10.77;;;;;;;;;;4995941;28;20042;-79
2022/12/14 02:56:59;;;;;;;22.85;12.05;;;;;;;;;;5012176;28;20558;-81
2022/12/14 02:59:26;;;;;;;21.25;8.80;;;;;;;;;;5012243;28;20050;-80
2022/12/14 03:01:52;;;;;;;21.65;11.57;;;;;;;;;;5012794;28;20037;-80
2022/12/14 03:04:19;;;;;;;23.52;11.35;;;;;;;;;;4994743;28;20078;-80
2022/12/14 03:06:51;;;;;;;21.38;10.23;;;;;;;;;;5009408;28;20618;-80
2022/12/14 03:09:17;;;;;;;16.67;8.98;;;;;;;;;;5011470;28;20110;-80
2022/12/14 03:12:03;;;;;;;23.95;12.38;;;;;;;;;;5009918;28;20327;-80
2022/12/14 03:14:36;;;;;;;21.50;11.15;;;;;;;;;;5014074;28;20070;-80
2022/12/14 03:17:22;;;;;;;25.08;12.77;;;;;;;;;;4993629;28;20049;-80
2022/12/14 03:20:01;;;;;;;24.55;11.05;;;;;;;;;;5009144;28;20868;-80
2022/12/14 03:22:34;;;;;;;18.48;9.48;;;;;;;;;;5013512;28;20037;-80
2022/12/14 03:25:03;;;;;;;19.60;11.18;;;;;;;;;;5010413;28;20061;-80
2022/12/14 03:27:41;;;;;;;19.70;9.38;;;;;;;;;;4994143;28;20076;-80
2022/12/14 03:30:10;;;;;;;16.08;8.95;;;;;;;;;;5011786;28;20046;-81
2022/12/14 03:32:39;;;;;;;20.33;10.50;;;;;;;;;;5015172;28;20145;-81
2022/12/14 03:35:15;;;;;;;20.55;9.60;;;;;;;;;;5009453;28;20053;-79
2022/12/14 03:37:51;;;;;;;27.10;10.95;;;;;;;;;;4996855;28;20048;-80
2022/12/14 03:40:17;;;;;;;15.45;10.50;;;;;;;;;;5012164;28;20051;-80
2022/12/14 03:43:04;;;;;;;20.30;10.68;;;;;;;;;;5013238;28;20600;-80
2022/12/14 03:45:50;;;;;;;17.73;11.05;;;;;;;;;;5010994;28;21195;-79
2022/12/14 03:48:17;;;;;;;19.48;10.45;;;;;;;;;;4986613;28;20057;-80
2022/12/14 03:50:45;;;;;;;31.77;14.93;;;;;;;;;;5010429;28;20496;-80
2022/12/14 03:53:11;;;;;;;20.83;10.95;;;;;;;;;;5014807;28;20085;-80
2022/12/14 03:55:37;;;;;;;18.58;9.95;;;;;;;;;;5009614;28;20064;-80
2022/12/14 03:58:30;;;;;;;26.38;13.68;;;;;;;;;;5010231;28;20038;-80
2022/12/14 04:01:11;;;;;;;23.40;12.73;;;;;;;;;;4985007;28;20566;-80
2022/12/14 04:03:37;;;;;;;19.60;10.88;;;;;;;;;;5011779;28;20042;-80
2022/12/14 04:06:07;;;;;;;25.58;11.75;;;;;;;;;;4993087;28;20464;-80
2022/12/14 04:08:42;;;;;;;21.70;10.43;;;;;;;;;;4987987;28;20042;-80
2022/12/14 04:20:00;;;;;;;19.95;9.43;;;;;;;;;;4972255;28;20054;-80
2022/12/14 04:22:28;;;;;;;20.13;11.23;;;;;;;;;;4972315;28;20034;-80
2022/12/14 04:27:45;;;;;;;20.02;10.57;;;;;;;;;;4973847;28;20044;-80
2022/12/14 04:30:11;;;;;;;21.98;13.07;;;;;;;;;;4973118;28;20936;-80
2022/12/14 04:32:41;;;;;;;25.08;11.23;;;;;;;;;;4989942;28;20042;-79
2022/12/14 04:35:20;;;;;;;16.58;10.80;;;;;;;;;;4971900;28;20741;-79
2022/12/14 04:37:54;;;;;;;22.75;10.77;;;;;;;;;;4981516;28;20046;-79
2022/12/14 04:40:22;;;;;;;26.20;12.88;;;;;;;;;;4990881;28;20583;-78
2022/12/14 04:42:58;;;;;;;24.38;11.40;;;;;;;;;;4990240;28;20074;-79
2022/12/14 04:45:27;;;;;;;21.88;10.43;;;;;;;;;;4972718;28;20043;-78
2022/12/14 04:47:59;;;;;;;26.23;12.07;;;;;;;;;;4971789;28;20627;-79
2022/12/14 04:50:25;;;;;;;;;;;;;;;;;;4968555;28;20157;-79
2022/12/14 04:52:54;;;;;;;18.45;7.45;;;;;;;;;;4981804;28;19929;-79
2022/12/14 04:55:20;;;;;;;20.45;11.55;;;;;;;;;;4967696;28;20071;-79
2022/12/14 04:57:50;;;;;;;20.83;10.13;;;;;;;;;;4969528;28;20047;-79
2022/12/14 05:00:17;;;;;;;22.00;12.02;;;;;;;;;;4972845;28;20058;-79
2022/12/14 05:02:51;;;;;;;22.73;11.55;;;;;;;;;;4990996;28;20623;-78
2022/12/14 05:05:25;;;;;;;20.88;12.30;;;;;;;;;;4987891;28;20047;-78
2022/12/14 05:08:00;;;;;;;20.45;10.88;;;;;;;;;;4973128;28;20047;-79
2022/12/14 05:10:35;;;;;;;24.17;11.75;;;;;;;;;;4974853;28;20043;-80
2022/12/14 05:13:20;;;;;;;8.35;4.55;;;;;;;;;;4975354;28;20086;-78
2022/12/14 05:15:48;;;;;;;22.33;10.95;;;;;;;;;;4990083;28;20664;-79
2022/12/14 05:18:14;;;;;;;21.58;11.65;;;;;;;;;;4973900;28;21061;-79
2022/12/14 05:20:40;;;;;;;25.38;11.82;;;;;;;;;;4974256;28;20133;-79
2022/12/14 05:23:06;;;;;;;22.77;10.65;;;;;;;;;;4987962;28;20067;-79
2022/12/14 05:25:33;;;;;;;24.58;11.52;;;;;;;;;;4971384;28;20050;-79
2022/12/14 05:27:59;;;;;;;29.80;12.95;;;;;;;;;;4968028;28;20054;-78
2022/12/14 05:30:25;;;;;;;18.52;9.57;;;;;;;;;;4982675;28;20077;-79
2022/12/14 05:32:52;;;;;;;22.08;13.15;;;;;;;;;;4970692;28;20578;-80
2022/12/14 05:35:18;;;;;;;22.35;11.95;;;;;;;;;;4966728;28;20039;-84
2022/12/14 05:37:44;;;;;;;22.38;11.48;;;;;;;;;;4975055;28;20093;-78
2022/12/14 05:40:11;;;;;;;20.80;10.77;;;;;;;;;;4970451;28;20070;-78
2022/12/14 05:42:37;;;;;;;22.10;12.75;;;;;;;;;;4973057;28;20039;-77
2022/12/14 05:45:04;;;;;;;21.27;10.80;;;;;;;;;;4974547;28;20057;-77
2022/12/14 05:47:30;;;;;;;21.63;10.85;;;;;;;;;;4970474;28;20055;-78
2022/12/14 05:49:56;;;;;;;27.70;13.77;;;;;;;;;;4988550;28;20142;-78
2022/12/14 05:52:26;;;;;;;22.88;13.32;;;;;;;;;;4976607;28;20069;-77
2022/12/14 05:54:52;;;;;;;25.92;12.82;;;;;;;;;;4975547;28;20074;-78
2022/12/14 05:57:19;;;;;;;20.65;10.55;;;;;;;;;;4976189;28;20047;-77
2022/12/14 05:59:45;;;;;;;17.90;9.68;;;;;;;;;;4972799;28;20580;-78
2022/12/14 06:02:11;;;;;;;26.65;13.77;;;;;;;;;;4973946;28;20043;-82
2022/12/14 06:04:37;;;;;;;27.25;13.73;;;;;;;;;;4974916;28;20129;-78
2022/12/14 06:07:03;;;;;;;25.42;11.15;;;;;;;;;;5014001;28;20528;-78
2022/12/14 06:09:29;;;;;;;22.95;11.60;;;;;;;;;;5011910;28;20141;-78
2022/12/14 06:11:55;;;;;;;15.80;9.00;;;;;;;;;;4997422;28;20047;-77
2022/12/14 06:14:23;;;;;;;20.08;11.00;;;;;;;;;;5014874;28;20042;-77
2022/12/14 06:16:49;;;;;;;16.02;8.45;;;;;;;;;;4997433;28;20539;-77
2022/12/14 06:19:15;;;;;;;29.35;11.77;;;;;;;;;;5013928;28;20050;-77
2022/12/14 06:21:42;;;;;;;23.65;11.70;;;;;;;;;;5015076;28;20041;-77
2022/12/14 06:24:10;;;;;;;19.92;11.32;;;;;;;;;;4997179;28;20116;-77
2022/12/14 06:26:36;;;;;;;28.55;12.93;;;;;;;;;;5016296;28;20046;-78
2022/12/14 06:29:03;;;;;;;17.23;9.13;;;;;;;;;;5015856;28;20108;-78
2022/12/14 06:31:30;;;;;;;26.50;10.80;;;;;;;;;;5016383;28;20069;-77
2022/12/14 06:33:59;;;;;;;24.63;12.43;;;;;;;;;;5013310;28;20157;-77
2022/12/14 06:36:26;;;;;;;21.88;11.73;;;;;;;;;;5012419;28;20093;-77
2022/12/14 06:38:53;;;;;;;20.05;11.80;;;;;;;;;;5013389;28;20121;-78
2022/12/14 06:41:20;;;;;;;26.83;12.50;;;;;;;;;;5013348;28;20038;-78
2022/12/14 06:43:46;;;;;;;19.08;8.82;;;;;;;;;;5014291;28;20045;-77
2022/12/14 06:46:14;;;;;;;26.17;12.55;;;;;;;;;;5014544;28;20046;-77
2022/12/14 06:48:41;;;;;;;24.17;10.13;;;;;;;;;;5016681;28;20471;-77
2022/12/14 06:51:07;;;;;;;17.10;7.82;;;;;;;;;;5013739;28;20050;-77
2022/12/14 06:53:34;;;;;;;17.20;8.25;;;;;;;;;;5015342;28;20069;-77
2022/12/14 06:56:16;;;;;;;18.63;10.88;;;;;;;;;;5015359;28;20034;-77
2022/12/14 06:58:43;;;;;;;21.25;10.75;;;;;;;;;;5014893;28;20435;-78
2022/12/14 07:01:12;;;;;;;27.08;10.98;;;;;;;;;;5013798;28;20561;-78
2022/12/14 07:03:38;;;;;;;22.65;11.13;;;;;;;;;;4997037;28;20629;-77
2022/12/14 07:06:05;;;;;;;24.48;11.75;;;;;;;;;;5012766;28;20460;-79
2022/12/14 07:08:31;;;;;;;26.48;14.07;;;;;;;;;;5015553;28;20519;-77
2022/12/14 07:11:01;;;;;;;27.88;13.27;;;;;;;;;;5014705;28;20112;-77
2022/12/14 07:13:28;;;;;;;17.23;10.00;;;;;;;;;;5013240;28;20772;-78
2022/12/14 07:15:55;;;;;;;20.38;8.93;;;;;;;;;;5012591;28;20550;-75
2022/12/14 07:18:21;;;;;;;20.92;8.95;;;;;;;;;;5007220;28;20678;-78
2022/12/14 07:21:00;;;;;;;22.33;11.90;;;;;;;;;;5014197;28;21315;-76
2022/12/14 07:23:27;;;;;;;27.77;13.27;;;;;;;;;;4995071;28;20165;-77
2022/12/14 07:25:53;;;;;;;23.02;10.93;;;;;;;;;;5012770;28;20506;-77
2022/12/14 07:28:19;;;;;;;27.05;10.75;;;;;;;;;;5009334;28;20240;-76
2022/12/14 07:30:46;;;;;;;28.45;13.68;;;;;;;;;;4998848;28;20053;-76
2022/12/14 07:33:12;;;;;;;16.73;8.40;;;;;;;;;;5017168;28;20132;-77
2022/12/14 07:35:38;;;;;;;22.38;9.98;;;;;;;;;;5012046;28;20053;-76
2022/12/14 07:38:04;;;;;;;24.95;11.90;;;;;;;;;;5014053;28;20034;-76
2022/12/14 07:40:33;;;;;;;23.30;11.15;;;;;;;;;;5013213;28;20054;-76
2022/12/14 07:43:01;;;;;;;20.02;10.55;;;;;;;;;;5014209;28;20113;-76
2022/12/14 07:45:27;;;;;;;22.80;9.70;;;;;;;;;;5016403;28;20077;-76
2022/12/14 07:47:53;;;;;;;18.60;9.82;;;;;;;;;;5017314;28;20049;-76
2022/12/14 07:50:20;;;;;;;24.25;11.40;;;;;;;;;;5016921;28;20037;-77
2022/12/14 07:52:46;;;;;;;17.55;9.18;;;;;;;;;;4999260;28;21013;-76
2022/12/14 07:55:12;;;;;;;24.42;11.48;;;;;;;;;;5016722;28;20061;-75
2022/12/14 07:57:38;;;;;;;25.92;12.25;;;;;;;;;;5014632;28;20097;-75
2022/12/14 08:00:04;;;;;;;22.90;11.20;;;;;;;;;;5000053;28;20042;-76
2022/12/14 08:02:30;;;;;;;22.60;10.23;;;;;;;;;;5015359;28;20038;-76
2022/12/14 08:04:56;;;;;;;23.35;12.02;;;;;;;;;;5017619;28;20058;-76
2022/12/14 08:07:22;;;;;;;21.08;11.60;;;;;;;;;;5017820;28;20045;-76
2022/12/14 08:09:49;;;;;;;23.60;11.57;;;;;;;;;;5019717;28;20962;-76
2022/12/14 08:12:16;;;;;;;7.65;4.88;;;;;;;;;;4999404;28;20057;-76
2022/12/14 08:14:42;;;;;;;26.92;8.55;;;;;;;;;;5014818;28;20042;-76
2022/12/14 08:17:08;;;;;;;22.13;10.32;;;;;;;;;;5015504;28;20042;-76
2022/12/14 08:19:35;;;;;;;13.00;8.57;;;;;;;;;;5015844;28;20069;-77
2022/12/14 08:22:01;;;;;;;30.45;14.10;;;;;;;;;;4997806;28;20037;-76
2022/12/14 08:24:27;;;;;;;29.52;12.90;;;;;;;;;;5016010;28;20049;-77
2022/12/14 08:26:53;;;;;;;32.05;13.68;;;;;;;;;;5013021;28;20054;-76
2022/12/14 08:29:21;;;;;;;23.85;12.02;;;;;;;;;;4997514;28;20508;-76
2022/12/14 08:31:47;;;;;;;30.90;15.48;;;;;;;;;;4996612;28;20306;-76
2022/12/14 08:34:15;;;;;;;30.23;14.43;;;;;;;;;;5015965;28;20935;-77
2022/12/14 08:36:41;;;;;;;27.52;14.18;;;;;;;;;;4997724;28;20050;-77
2022/12/14 08:39:09;;;;;;;35.05;15.57;;;;;;;;;;5015603;28;20042;-76
2022/12/14 08:41:35;;;;;;;14.43;8.60;;;;;;;;;;4996469;28;20041;-76
2022/12/14 08:44:02;;;;;;;23.73;11.30;;;;;;;;;;5018294;28;20053;-76
2022/12/14 08:46:30;;;;;;;31.17;15.07;;;;;;;;;;5019062;28;20100;-76
2022/12/14 08:48:56;;;;;;;30.33;14.27;;;;;;;;;;5021243;28;20046;-76
2022/12/14 08:51:23;;;;;;;24.30;12.55;;;;;;;;;;5016953;28;20045;-76
2022/12/14 08:53:49;;;;;;;26.25;11.15;;;;;;;;;;5001961;28;20041;-76
2022/12/14 08:56:17;;;;;;;26.10;12.32;;;;;;;;;;5003848;28;20493;-76
2022/12/14 08:58:43;;;;;;;28.52;13.30;;;;;;;;;;5021879;28;20037;-76
2022/12/14 09:01:12;;;;;;;29.65;14.07;;;;;;;;;;5020414;28;20042;-77
2022/12/14 09:03:38;;;;;;;29.48;15.38;;;;;;;;;;5021211;28;20034;-77
2022/12/14 09:06:05;;;;;;;29.05;14.88;;;;;;;;;;5022111;28;20143;-76
2022/12/14 09:08:31;;;;;;;26.40;13.27;;;;;;;;;;5020169;28;20622;-77
2022/12/14 09:10:58;;;;;;;27.08;12.40;;;;;;;;;;5001684;28;20076;-77
2022/12/14 09:13:24;;;;;;;26.25;13.00;;;;;;;;;;5003628;28;20046;-76
2022/12/14 09:15:57;;;;;;;29.50;13.68;;;;;;;;;;5020314;28;20754;-77
2022/12/14 09:18:24;;;;;;;25.58;12.60;;;;;;;;;;5020379;28;20097;-77
2022/12/14 09:20:53;;;;;;;22.35;13.07;;;;;;;;;;5019251;28;20053;-77
2022/12/14 09:23:19;;;;;;;29.63;13.80;;;;;;;;;;5019404;28;20726;-77
2022/12/14 09:25:45;;;;;;;25.35;13.30;;;;;;;;;;4999365;28;20041;-76
2022/12/14 09:28:11;;;;;;;25.15;15.30;;;;;;;;;;5019987;28;20188;-76
2022/12/14 09:30:38;;;;;;;30.65;15.32;;;;;;;;;;5019109;28;20038;-77
2022/12/14 09:33:04;;;;;;;25.20;13.32;;;;;;;;;;5017535;28;20129;-76
2022/12/14 09:35:30;;;;;;;24.75;13.68;;;;;;;;;;5002785;28;20046;-76
2022/12/14 09:37:56;;;;;;;35.88;14.57;;;;;;;;;;5020647;28;20590;-76
2022/12/14 09:40:26;;;;;;;28.33;14.27;;;;;;;;;;5021039;28;20042;-77
2022/12/14 09:43:03;;;;;;;25.58;13.63;;;;;;;;;;5020769;28;20153;-77
2022/12/14 09:45:32;;;;;;;25.80;13.88;;;;;;;;;;5019956;28;20544;-77
2022/12/14 09:48:04;;;;;;;33.03;13.88;;;;;;;;;;5001719;28;20499;-77
2022/12/14 09:50:30;;;;;;;26.83;11.55;;;;;;;;;;5018249;28;20045;-77
2022/12/14 09:52:59;;;;;;;27.17;14.35;;;;;;;;;;5016421;28;20050;-77
2022/12/14 09:55:28;;;;;;;28.83;12.50;;;;;;;;;;5015291;28;20428;-77
2022/12/14 09:58:13;;;;;;;32.40;13.93;;;;;;;;;;5015549;28;20045;-77
2022/12/14 10:00:48;;;;;;;38.50;15.80;;;;;;;;;;4997823;28;20137;-77
2022/12/14 10:03:14;;;;;;;29.92;15.15;;;;;;;;;;5014727;28;20417;-76
2022/12/14 10:05:59;;;;;;;20.92;11.18;;;;;;;;;;5016935;28;20050;-77
2022/12/14 10:08:25;;;;;;;26.17;11.50;;;;;;;;;;5000455;28;20046;-77
2022/12/14 10:11:10;;;;;;;25.17;13.00;;;;;;;;;;5013986;28;20842;-77
2022/12/14 10:13:36;;;;;;;27.23;14.63;;;;;;;;;;5013704;28;20068;-77
2022/12/14 10:16:05;;;;;;;24.92;12.98;;;;;;;;;;5016615;28;20038;-77
2022/12/14 10:18:31;;;;;;;29.58;13.38;;;;;;;;;;5015151;28;20101;-77
2022/12/14 10:21:00;;;;;;;12.90;7.22;;;;;;;;;;5018345;28;20109;-76
2022/12/14 10:23:27;;;;;;;31.67;15.07;;;;;;;;;;5015304;28;20045;-77
2022/12/14 10:25:55;;;;;;;25.13;13.15;;;;;;;;;;5017257;28;20115;-77
2022/12/14 10:28:35;;;;;;;30.58;14.55;;;;;;;;;;5015479;28;20042;-77
2022/12/14 10:31:01;;;;;;;32.03;15.52;;;;;;;;;;5017576;28;20053;-77
2022/12/14 10:33:28;;;;;;;31.30;14.85;;;;;;;;;;5015303;28;20551;-76
2022/12/14 10:36:17;;;;;;;28.92;14.15;;;;;;;;;;5018124;28;20073;-76
2022/12/14 10:39:02;;;;;;;21.88;14.15;;;;;;;;;;5015681;28;20125;-77
2022/12/14 10:41:49;;;;;;;27.08;13.90;;;;;;;;;;5012597;28;20061;-76
2022/12/14 10:44:19;;;;;;;35.08;14.57;;;;;;;;;;5014629;28;20050;-77
2022/12/14 10:47:04;;;;;;;26.75;12.10;;;;;;;;;;5015037;28;20080;-77
2022/12/14 10:50:03;;;;;;;19.90;8.93;;;;;;;;;;5016259;28;20049;-77
2022/12/14 10:52:34;;;;;;;21.10;10.07;;;;;;;;;;4993438;28;20604;-78
2022/12/14 10:55:03;;;;;;;33.72;14.05;;;;;;;;;;5017718;28;20050;-77
2022/12/14 10:57:29;;;;;;;16.33;8.13;;;;;;;;;;5015091;28;20104;-78
2022/12/14 10:59:55;;;;;;;23.02;11.93;;;;;;;;;;5016260;28;20042;-77
2022/12/14 11:02:28;;;;;;;18.75;10.73;;;;;;;;;;5016370;28;20140;-78
2022/12/14 11:04:57;;;;;;;28.40;14.90;;;;;;;;;;5015505;28;20058;-77
2022/12/14 11:07:37;;;;;;;26.50;15.20;;;;;;;;;;5015373;28;20042;-77
2022/12/14 11:10:15;;;;;;;28.55;13.75;;;;;;;;;;5017184;28;20532;-78
2022/12/14 11:12:50;;;;;;;25.10;12.50;;;;;;;;;;5016965;28;20483;-78
2022/12/14 11:15:23;;;;;;;23.98;12.73;;;;;;;;;;5016111;28;20073;-77
2022/12/14 11:17:58;;;;;;;24.90;12.07;;;;;;;;;;5017309;28;20111;-77
2022/12/14 11:20:24;;;;;;;31.58;14.27;;;;;;;;;;5016221;28;20053;-77
2022/12/14 11:22:52;;;;;;;23.98;11.63;;;;;;;;;;5018794;28;20053;-78
2022/12/14 11:25:29;;;;;;;25.98;14.00;;;;;;;;;;5017901;28;20519;-78
2022/12/14 11:27:56;;;;;;;24.10;13.40;;;;;;;;;;5018170;28;20042;-78
2022/12/14 11:30:22;;;;;;;20.90;11.85;;;;;;;;;;5016154;28;20045;-78
2022/12/14 11:32:49;;;;;;;25.20;13.27;;;;;;;;;;5016986;28;20042;-78
2022/12/14 11:35:19;;;;;;;25.85;12.15;;;;;;;;;;5000378;28;20050;-78
2022/12/14 11:37:49;;;;;;;24.95;11.55;;;;;;;;;;5017081;28;20658;-78
2022/12/14 11:40:25;;;;;;;27.23;14.07;;;;;;;;;;5016061;28;20046;-77
2022/12/14 11:42:55;;;;;;;25.55;14.50;;;;;;;;;;5015358;28;20053;-78
2022/12/14 11:45:24;;;;;;;21.60;10.15;;;;;;;;;;5016856;28;20045;-78
2022/12/14 11:48:09;;;;;;;26.60;13.13;;;;;;;;;;5000428;28;20049;-77
2022/12/14 11:50:35;;;;;;;24.08;13.00;;;;;;;;;;5019156;28;20049;-78
2022/12/14 11:53:06;;;;;;;24.25;11.93;;;;;;;;;;4999102;28;20129;-78
2022/12/14 11:55:37;;;;;;;24.85;13.05;;;;;;;;;;5018074;28;20065;-78
2022/12/14 11:58:03;;;;;;;20.23;11.00;;;;;;;;;;4996710;28;20049;-77
2022/12/14 12:00:41;;;;;;;25.85;12.20;;;;;;;;;;5016983;28;20540;-77
2022/12/14 12:03:07;;;;;;;23.35;12.25;;;;;;;;;;5017207;28;20042;-78
2022/12/14 12:05:34;;;;;;;24.42;11.25;;;;;;;;;;4999976;28;20057;-78
2022/12/14 12:08:01;;;;;;;25.92;11.82;;;;;;;;;;4999381;28;20121;-77
2022/12/14 12:10:36;;;;;;;27.27;13.65;;;;;;;;;;5016181;28;20623;-78
2022/12/14 12:13:06;;;;;;;21.15;11.95;;;;;;;;;;4997808;28;20073;-77
2022/12/14 12:15:37;;;;;;;32.72;13.70;;;;;;;;;;4998866;28;20046;-78
2022/12/14 12:18:19;;;;;;;24.02;11.35;;;;;;;;;;5014685;28;20042;-77
2022/12/14 12:20:51;;;;;;;25.10;11.20;;;;;;;;;;5016146;28;20042;-77
2022/12/14 12:23:38;;;;;;;21.52;11.75;;;;;;;;;;5016898;28;20542;-77
2022/12/14 12:26:12;;;;;;;24.27;12.13;;;;;;;;;;5015992;28;20543;-78
2022/12/14 12:28:40;;;;;;;22.98;13.50;;;;;;;;;;4997045;28;20586;-78
2022/12/14 12:31:11;;;;;;;26.90;13.20;;;;;;;;;;4996403;28;20065;-77
2022/12/14 12:33:46;;;;;;;24.88;12.13;;;;;;;;;;4996661;28;20050;-78
2022/12/14 12:36:15;;;;;;;24.48;11.05;;;;;;;;;;5011252;28;20050;-77
2022/12/14 12:38:46;;;;;;;26.30;14.60;;;;;;;;;;5013604;28;20046;-78
2022/12/14 12:41:17;;;;;;;25.15;10.50;;;;;;;;;;4997549;28;20091;-78
2022/12/14 12:43:47;;;;;;;23.27;12.38;;;;;;;;;;4997044;28;20144;-78
2022/12/14 12:46:32;;;;;;;22.58;8.88;;;;;;;;;;4994849;28;20042;-77
2022/12/14 12:48:58;;;;;;;23.48;12.10;;;;;;;;;;5013092;28;20041;-78
2022/12/14 12:51:26;;;;;;;22.75;11.93;;;;;;;;;;5014666;28;20096;-77
2022/12/14 12:54:05;;;;;;;27.08;13.10;;;;;;;;;;5016140;28;20038;-78
2022/12/14 12:56:45;;;;;;;22.02;11.63;;;;;;;;;;5015151;28;20084;-78
2022/12/14 12:59:15;;;;;;;26.02;12.15;;;;;;;;;;4997107;28;20050;-80
2022/12/14 13:01:43;;;;;;;23.27;10.27;;;;;;;;;;5011303;28;20673;-78
2022/12/14 13:04:15;;;;;;;20.33;9.57;;;;;;;;;;5014353;28;20097;-78
2022/12/14 13:06:54;;;;;;;23.23;11.93;;;;;;;;;;5013920;28;20057;-79
2022/12/14 13:09:39;;;;;;;19.10;10.02;;;;;;;;;;4989708;28;20100;-79
2022/12/14 13:12:06;;;;;;;23.80;10.23;;;;;;;;;;4995256;28;20038;-79
2022/12/14 13:14:40;;;;;;;16.17;7.35;;;;;;;;;;5014443;28;20046;-78
2022/12/14 13:17:07;;;;;;;22.95;9.65;;;;;;;;;;5013482;28;20411;-79
2022/12/14 13:19:41;;;;;;;23.35;10.65;;;;;;;;;;5013915;28;20053;-79
2022/12/14 13:22:10;;;;;;;30.75;12.27;;;;;;;;;;5012036;28;20046;-79
2022/12/14 13:24:36;;;;;;;23.42;11.95;;;;;;;;;;5014755;28;20137;-79
2022/12/14 13:27:07;;;;;;;21.75;11.15;;;;;;;;;;4994261;28;20050;-79
2022/12/14 13:29:45;;;;;;;23.13;10.15;;;;;;;;;;5010424;28;20041;-79
2022/12/14 13:32:30;;;;;;;27.38;14.15;;;;;;;;;;4998436;28;20046;-79
2022/12/14 13:35:15;;;;;;;22.13;10.75;;;;;;;;;;5018140;28;20057;-79
2022/12/14 13:37:45;;;;;;;23.52;11.85;;;;;;;;;;5013632;28;20510;-78
2022/12/14 13:40:34;;;;;;;23.50;12.95;;;;;;;;;;4998679;28;20129;-79
2022/12/14 13:43:00;;;;;;;27.00;13.40;;;;;;;;;;5009221;28;20544;-79
2022/12/14 13:45:31;;;;;;;22.73;11.20;;;;;;;;;;5018302;28;20046;-79
2022/12/14 13:47:58;;;;;;;26.48;11.52;;;;;;;;;;5018082;28;20108;-80
2022/12/14 13:50:29;;;;;;;28.60;13.35;;;;;;;;;;5015134;28;20049;-79
2022/12/14 13:52:58;;;;;;;21.77;12.23;;;;;;;;;;5015951;28;20524;-78
2022/12/14 13:55:30;;;;;;;24.33;13.60;;;;;;;;;;5016941;28;20041;-79
2022/12/14 13:58:06;;;;;;;22.33;12.80;;;;;;;;;;5007682;28;20045;-79
2022/12/14 14:00:44;;;;;;;24.50;11.80;;;;;;;;;;5013063;28;20074;-79
2022/12/14 14:03:29;;;;;;;25.85;13.32;;;;;;;;;;5013716;28;20534;-79
2022/12/14 14:05:56;;;;;;;19.65;9.88;;;;;;;;;;5013987;28;20057;-79
2022/12/14 14:08:32;;;;;;;22.70;12.48;;;;;;;;;;5016374;28;21072;-79
2022/12/14 14:10:58;;;;;;;34.83;12.93;;;;;;;;;;5015686;28;20041;-79
2022/12/14 14:13:27;;;;;;;27.00;13.55;;;;;;;;;;5014905;28;20035;-78
2022/12/14 14:16:04;;;;;;;20.88;10.68;;;;;;;;;;5016817;28;20054;-79
2022/12/14 14:18:31;;;;;;;25.25;11.80;;;;;;;;;;4999071;28;20050;-79
2022/12/14 14:21:12;;;;;;;19.98;9.55;;;;;;;;;;5018672;28;20461;-79
2022/12/14 14:23:58;;;;;;;20.90;10.57;;;;;;;;;;5014664;28;20048;-79
2022/12/14 14:26:34;;;;;;;23.77;10.00;;;;;;;;;;5016139;28;20890;-79
2022/12/14 14:29:19;;;;;;;26.73;11.73;;;;;;;;;;4998173;28;20124;-79
2022/12/14 14:32:05;;;;;;;19.98;10.88;;;;;;;;;;5017892;28;20038;-79
2022/12/14 14:34:37;;;;;;;25.10;10.50;;;;;;;;;;5016327;28;20037;-79
2022/12/14 14:37:24;;;;;;;22.73;11.13;;;;;;;;;;5018252;28;20069;-79
2022/12/14 14:39:59;;;;;;;17.10;6.57;;;;;;;;;;5016050;28;20054;-79
2022/12/14 14:42:26;;;;;;;26.60;12.70;;;;;;;;;;5014698;28;20046;-79
2022/12/14 14:44:57;;;;;;;23.42;10.85;;;;;;;;;;5013314;28;20089;-78
2022/12/14 14:47:24;;;;;;;27.25;11.70;;;;;;;;;;4996966;28;20129;-79
2022/12/14 14:50:01;;;;;;;23.00;10.48;;;;;;;;;;5017783;28;20046;-78